KATW/ATW METAR and TAF weather

Enter ICAO airport designator
Station Type Date Time Source
KATW METAR 2018/06/25 16:45 UTC NOAA

KATW 251645Z 09006KT 10SM BKN020 22/13 A3020


Station Type Date Time Source
KATW Decoded METAR 2018/06/25 16:45 UTC NOAA

Appleton / Outagamie, WI, United States (KATW) 44-15N 088-31W
Jun 25, 2018 - 12:45 PM EDT / 2018.06.25 1645 UTC
Wind: from the E (090 degrees) at 7 MPH (6 KT):0
Visibility: 10 mile(s):0
Sky conditions: mostly cloudy
Temperature: 71 F (22 C)
Dew Point: 55 F (13 C)
Relative Humidity: 56%
Pressure (altimeter): 30.2 in. Hg (1022 hPa)
ob: KATW 251645Z 09006KT 10SM BKN020 22/13 A3020
cycle: 17

Station Type Date Time Source
KATW TAF 2018/06/25 16:36 UTC NOAA

TAF
AMD KATW 251533Z 2516/2612 08004KT P6SM BKN010
TEMPO 2516/2518 SCT010
FM251800 11010G15KT P6SM SCT030 SCT250
FM252200 10007KT P6SM SCT030 SCT250
FM260000 09007KT P6SM SCT250
FM260600 11007KT P6SM BKN100 WS012/15035KT


Example: see airport list